createdAt,value
2022-11-23T00:00:06.277Z,90.22
2022-11-23T00:01:18.243Z,90.08
2022-11-23T00:02:21.420Z,90.46
2022-11-23T00:03:24.122Z,90.46
2022-11-23T00:04:27.353Z,89.75
2022-11-23T00:05:30.490Z,90.23
2022-11-23T00:06:33.261Z,90.40
2022-11-23T00:07:40.159Z,90.72
2022-11-23T00:08:45.604Z,90.06
2022-11-23T00:09:48.778Z,89.43
2022-11-23T00:10:52.911Z,89.29
2022-11-23T00:11:56.321Z,89.25
2022-11-23T00:13:01.110Z,89.31
2022-11-23T00:14:05.353Z,89.60
2022-11-23T00:15:10.951Z,89.57
2022-11-23T00:16:16.092Z,89.87
2022-11-23T00:17:21.254Z,89.92
2022-11-23T00:18:24.553Z,89.68
2022-11-23T00:19:32.544Z,90.09
2022-11-23T00:20:35.945Z,90.12
2022-11-23T00:21:39.357Z,90.28
2022-11-23T00:22:42.014Z,89.96
2022-11-23T00:23:46.471Z,89.91
2022-11-23T00:24:49.881Z,90.12
2022-11-23T00:25:53.052Z,90.27
2022-11-23T00:26:59.169Z,90.14
2022-11-23T00:28:02.497Z,89.65
2022-11-23T00:29:07.141Z,89.88
2022-11-23T00:30:13.400Z,89.43
2022-11-23T00:31:18.107Z,90.28
2022-11-23T00:32:24.432Z,90.33
2022-11-23T00:33:28.531Z,89.93
2022-11-23T00:34:32.866Z,89.29
2022-11-23T00:35:36.514Z,89.22
2022-11-23T00:36:38.766Z,88.91
2022-11-23T00:37:41.958Z,89.04
2022-11-23T00:38:45.767Z,89.30
2022-11-23T00:39:49.178Z,89.93
2022-11-23T00:40:55.380Z,90.20
2022-11-23T00:41:59.518Z,90.28
2022-11-23T00:43:03.034Z,90.19
2022-11-23T00:44:08.663Z,90.19
2022-11-23T00:45:12.236Z,89.59
2022-11-23T00:46:17.309Z,89.76
2022-11-23T00:47:23.312Z,90.05
2022-11-23T00:48:26.723Z,90.25
2022-11-23T00:49:35.101Z,90.35
2022-11-23T00:50:40.581Z,90.10
2022-11-23T00:51:46.010Z,90.04
2022-11-23T00:52:51.073Z,90.27
2022-11-23T00:54:01.686Z,90.27
2022-11-23T00:55:06.084Z,90.13
2022-11-23T00:56:09.428Z,90.02
2022-11-23T00:57:12.412Z,90.45
2022-11-23T00:58:14.664Z,90.28
2022-11-23T00:59:17.217Z,90.30
2022-11-23T01:00:20.734Z,90.20
2022-11-23T01:01:25.758Z,90.11
2022-11-23T01:02:29.347Z,90.14
2022-11-23T01:03:32.807Z,90.13
2022-11-23T01:04:39.589Z,89.97
2022-11-23T01:05:42.949Z,90.69
2022-11-23T01:06:47.021Z,90.17
2022-11-23T01:07:53.409Z,89.90
2022-11-23T01:08:58.518Z,89.96
2022-11-23T01:10:05.391Z,89.71
2022-11-23T01:11:12.075Z,89.45
2022-11-23T01:12:15.374Z,89.09
2022-11-23T01:13:18.775Z,89.42
2022-11-23T01:14:22.895Z,89.79
2022-11-23T01:15:26.088Z,89.77
2022-11-23T01:16:30.528Z,89.64
2022-11-23T01:17:32.899Z,89.42
2022-11-23T01:18:39.226Z,90.06
2022-11-23T01:19:44.679Z,89.94
2022-11-23T01:20:48.741Z,89.75
2022-11-23T01:21:56.621Z,90.23
2022-11-23T01:23:00.987Z,89.09
2022-11-23T01:24:08.555Z,89.13
2022-11-23T01:25:13.091Z,89.40
2022-11-23T01:26:16.606Z,89.02
2022-11-23T01:27:20.100Z,88.87
2022-11-23T01:28:23.302Z,89.31
2022-11-23T01:29:27.752Z,89.02
2022-11-23T01:30:32.022Z,89.14
2022-11-23T01:31:34.530Z,89.02
2022-11-23T01:32:41.290Z,89.86
2022-11-23T01:33:44.605Z,89.94
2022-11-23T01:34:48.083Z,90.25
2022-11-23T01:35:51.389Z,90.49
2022-11-23T01:36:53.525Z,90.08
2022-11-23T01:37:57.146Z,89.69
2022-11-23T01:39:01.381Z,90.00
2022-11-23T01:40:05.304Z,89.42
2022-11-23T01:41:09.748Z,89.00
2022-11-23T01:42:18.001Z,89.49
2022-11-23T01:43:21.146Z,89.49
2022-11-23T01:44:26.429Z,89.53
2022-11-23T01:45:37.231Z,89.66
2022-11-23T01:46:40.380Z,90.14
2022-11-23T01:47:45.785Z,90.04
2022-11-23T01:48:58.888Z,90.09
2022-11-23T01:50:02.537Z,91.06
2022-11-23T01:51:08.407Z,90.51
2022-11-23T01:52:16.866Z,90.11
2022-11-23T01:53:24.263Z,90.51
2022-11-23T01:54:30.287Z,90.00
2022-11-23T01:55:33.960Z,89.79
2022-11-23T01:56:39.022Z,90.55
2022-11-23T01:57:44.093Z,90.73
2022-11-23T01:58:50.209Z,90.44
2022-11-23T01:59:55.187Z,90.67
2022-11-23T02:00:58.929Z,89.84
2022-11-23T02:02:02.091Z,89.75
2022-11-23T02:03:06.129Z,90.22
2022-11-23T02:04:10.983Z,90.47
2022-11-23T02:05:20.474Z,89.98
2022-11-23T02:06:25.596Z,90.45
2022-11-23T02:07:29.583Z,90.82
2022-11-23T02:08:34.049Z,90.75
2022-11-23T02:09:39.319Z,90.76
2022-11-23T02:10:41.505Z,90.26
2022-11-23T02:11:45.744Z,90.31
2022-11-23T02:12:50.232Z,90.58
2022-11-23T02:13:52.554Z,90.87
2022-11-23T02:14:59.533Z,90.73
2022-11-23T02:16:03.220Z,90.58
2022-11-23T02:17:06.206Z,90.30
2022-11-23T02:18:19.204Z,90.44
2022-11-23T02:19:35.574Z,91.04
2022-11-23T02:20:42.275Z,90.55
2022-11-23T02:21:45.393Z,91.21
2022-11-23T02:22:50.676Z,91.34
2022-11-23T02:24:14.870Z,91.45
2022-11-23T02:25:36.595Z,91.23
2022-11-23T02:26:40.649Z,91.06
2022-11-23T02:27:50.759Z,91.23
2022-11-23T02:28:58.011Z,91.27
2022-11-23T02:30:02.439Z,91.79
2022-11-23T02:31:04.720Z,91.45
2022-11-23T02:32:08.120Z,91.21
2022-11-23T02:33:11.417Z,91.44
2022-11-23T02:34:16.590Z,91.41
2022-11-23T02:35:20.201Z,91.62
2022-11-23T02:36:27.989Z,91.34
2022-11-23T02:37:31.213Z,90.93
2022-11-23T02:38:34.559Z,90.73
2022-11-23T02:39:38.324Z,90.69
2022-11-23T02:40:42.618Z,91.58
2022-11-23T02:41:49.717Z,90.90
2022-11-23T02:42:54.137Z,90.34
2022-11-23T02:43:59.281Z,90.27
2022-11-23T02:45:08.054Z,90.08
2022-11-23T02:46:15.824Z,90.05
2022-11-23T02:47:19.442Z,89.64
2022-11-23T02:48:22.725Z,89.91
2022-11-23T02:49:26.044Z,90.03
2022-11-23T02:50:32.555Z,90.17
2022-11-23T02:51:37.112Z,90.04
2022-11-23T02:52:40.223Z,90.65
2022-11-23T02:53:42.869Z,90.50
2022-11-23T02:54:48.274Z,89.97
2022-11-23T02:55:51.643Z,90.46
2022-11-23T02:56:54.939Z,89.88
2022-11-23T02:58:00.638Z,89.71
2022-11-23T02:59:09.260Z,89.45
2022-11-23T03:00:13.926Z,89.38
2022-11-23T03:01:20.497Z,89.64
2022-11-23T03:02:26.568Z,89.83
2022-11-23T03:03:29.654Z,89.71
2022-11-23T03:04:33.441Z,89.79
2022-11-23T03:05:36.976Z,89.89
2022-11-23T03:06:42.373Z,90.18
2022-11-23T03:07:45.548Z,90.08
2022-11-23T03:08:49.277Z,89.86
2022-11-23T03:09:53.096Z,90.04
2022-11-23T03:10:56.703Z,90.01
2022-11-23T03:12:00.199Z,89.65
2022-11-23T03:13:03.600Z,89.92
2022-11-23T03:14:10.661Z,90.12
2022-11-23T03:15:15.842Z,90.00
2022-11-23T03:16:20.381Z,89.92
2022-11-23T03:17:25.672Z,90.10
2022-11-23T03:18:30.629Z,90.08
2022-11-23T03:19:33.958Z,90.15
2022-11-23T03:20:37.441Z,90.26
2022-11-23T03:21:41.050Z,90.08
2022-11-23T03:22:45.686Z,90.02
2022-11-23T03:23:49.629Z,90.03
2022-11-23T03:24:53.133Z,89.96
2022-11-23T03:25:59.278Z,90.01
2022-11-23T03:27:03.473Z,89.85
2022-11-23T03:28:08.702Z,90.09
2022-11-23T03:29:12.166Z,90.33
2022-11-23T03:30:16.466Z,89.90
2022-11-23T03:31:20.231Z,90.97
2022-11-23T03:32:25.281Z,91.30
2022-11-23T03:33:30.886Z,91.75
2022-11-23T03:34:36.249Z,91.03
2022-11-23T03:35:40.210Z,90.98
2022-11-23T03:36:44.433Z,90.83
2022-11-23T03:37:47.949Z,90.42
2022-11-23T03:38:50.593Z,90.56
2022-11-23T03:40:11.238Z,91.10
2022-11-23T03:41:32.906Z,90.71
2022-11-23T03:42:36.412Z,91.00
2022-11-23T03:43:41.430Z,91.64
2022-11-23T03:44:45.051Z,90.98
2022-11-23T03:45:48.219Z,91.24
2022-11-23T03:46:52.428Z,91.00
2022-11-23T03:47:55.829Z,91.19
2022-11-23T03:48:59.540Z,91.58
2022-11-23T03:50:02.931Z,90.86
2022-11-23T03:51:10.261Z,91.13
2022-11-23T03:52:12.962Z,91.12
2022-11-23T03:53:17.316Z,90.75
2022-11-23T03:54:22.708Z,91.04
2022-11-23T03:55:26.619Z,90.87
2022-11-23T03:56:29.194Z,91.20
2022-11-23T03:57:33.249Z,90.94
2022-11-23T03:58:36.985Z,90.98
2022-11-23T03:59:42.320Z,91.08
2022-11-23T04:00:47.123Z,91.26
2022-11-23T04:01:52.748Z,91.44
2022-11-23T04:02:58.266Z,91.60
2022-11-23T04:04:03.650Z,91.62
2022-11-23T04:05:12.065Z,91.25
2022-11-23T04:06:34.163Z,90.47
2022-11-23T04:07:42.086Z,89.74
2022-11-23T04:08:46.081Z,89.74
2022-11-23T04:09:51.259Z,89.59
2022-11-23T04:11:03.433Z,89.73
2022-11-23T04:12:12.785Z,89.56
2022-11-23T04:13:16.801Z,89.78
2022-11-23T04:14:20.840Z,90.09
2022-11-23T04:15:24.972Z,89.69
2022-11-23T04:16:29.001Z,90.00
2022-11-23T04:17:32.598Z,90.56
2022-11-23T04:18:34.954Z,90.13
2022-11-23T04:19:38.270Z,90.44
2022-11-23T04:20:42.160Z,91.28
2022-11-23T04:21:45.753Z,90.48
2022-11-23T04:22:49.703Z,90.09
2022-11-23T04:23:53.359Z,90.33
2022-11-23T04:25:01.113Z,90.53
2022-11-23T04:26:04.826Z,90.26
2022-11-23T04:27:08.737Z,90.94
2022-11-23T04:28:14.300Z,90.49
2022-11-23T04:29:18.703Z,90.51
2022-11-23T04:30:23.954Z,90.35
2022-11-23T04:31:29.964Z,90.06
2022-11-23T04:32:47.003Z,89.87
2022-11-23T04:33:49.519Z,90.35
2022-11-23T04:34:53.848Z,90.42
2022-11-23T04:35:58.935Z,90.69
2022-11-23T04:37:05.992Z,91.40
2022-11-23T04:38:13.741Z,91.77
2022-11-23T04:39:18.435Z,91.43
2022-11-23T04:40:32.587Z,91.12
2022-11-23T04:41:37.974Z,91.13
2022-11-23T04:42:41.582Z,90.85
2022-11-23T04:43:47.582Z,90.70
2022-11-23T04:44:52.040Z,90.78
2022-11-23T04:45:55.967Z,90.51
2022-11-23T04:47:01.127Z,90.68
2022-11-23T04:48:04.528Z,90.35
2022-11-23T04:49:10.996Z,90.03
2022-11-23T04:50:14.566Z,90.34
2022-11-23T04:51:19.126Z,91.03
2022-11-23T04:52:24.186Z,90.41
2022-11-23T04:53:27.484Z,90.23
2022-11-23T04:54:32.881Z,90.26
2022-11-23T04:55:38.055Z,90.10
2022-11-23T04:56:41.561Z,90.40
2022-11-23T04:57:45.054Z,90.57
2022-11-23T04:58:48.067Z,90.51
2022-11-23T04:59:50.916Z,91.10
2022-11-23T05:00:54.434Z,90.79
2022-11-23T05:01:58.078Z,90.98
2022-11-23T05:03:06.079Z,91.04
2022-11-23T05:04:16.279Z,90.94
2022-11-23T05:05:16.530Z,91.52
2022-11-23T05:06:21.879Z,91.27
2022-11-23T05:07:25.720Z,90.85
2022-11-23T05:08:31.667Z,90.53
2022-11-23T05:09:38.868Z,90.40
2022-11-23T05:10:51.501Z,90.67
2022-11-23T05:11:56.453Z,90.09
2022-11-23T05:13:00.550Z,89.97
2022-11-23T05:14:05.895Z,89.89
2022-11-23T05:15:11.200Z,89.73
2022-11-23T05:16:17.595Z,89.64
2022-11-23T05:17:20.772Z,89.68
2022-11-23T05:18:23.620Z,89.37
2022-11-23T05:19:27.713Z,89.27
2022-11-23T05:20:31.082Z,89.17
2022-11-23T05:21:34.335Z,89.29
2022-11-23T05:22:37.765Z,89.30
2022-11-23T05:23:42.882Z,89.22
2022-11-23T05:24:46.167Z,88.77
2022-11-23T05:25:52.438Z,88.79
2022-11-23T05:26:56.469Z,89.05
2022-11-23T05:28:11.405Z,88.98
2022-11-23T05:29:06.455Z,88.57
2022-11-23T05:30:12.259Z,88.54
2022-11-23T05:31:14.756Z,88.20
2022-11-23T05:32:19.040Z,88.52
2022-11-23T05:33:22.614Z,88.73
2022-11-23T05:34:25.497Z,88.88
2022-11-23T05:35:29.367Z,89.10
2022-11-23T05:36:32.729Z,88.84
2022-11-23T05:37:36.205Z,89.21
2022-11-23T05:38:41.809Z,88.92
2022-11-23T05:39:53.659Z,88.63
2022-11-23T05:40:57.478Z,89.03
2022-11-23T05:42:03.566Z,88.72
2022-11-23T05:43:08.211Z,88.71
2022-11-23T05:44:12.598Z,89.19
2022-11-23T05:45:16.016Z,89.46
2022-11-23T05:46:21.385Z,89.20
2022-11-23T05:47:24.367Z,88.49
2022-11-23T05:48:31.736Z,88.47
2022-11-23T05:49:35.392Z,88.71
2022-11-23T05:50:39.790Z,89.00
2022-11-23T05:52:02.618Z,88.95
2022-11-23T05:53:06.322Z,88.65
2022-11-23T05:54:10.154Z,89.00
2022-11-23T05:55:22.863Z,88.79
2022-11-23T05:56:25.088Z,88.37
2022-11-23T05:57:37.680Z,88.34
2022-11-23T05:58:40.669Z,88.48
2022-11-23T05:59:44.462Z,88.95
2022-11-23T06:00:49.878Z,88.54
2022-11-23T06:01:53.803Z,88.36
2022-11-23T06:03:02.135Z,89.00
2022-11-23T06:04:06.483Z,89.10
2022-11-23T06:05:12.785Z,88.82
2022-11-23T06:06:21.543Z,89.53
2022-11-23T06:07:25.109Z,89.12
2022-11-23T06:08:44.532Z,88.90
2022-11-23T06:09:48.630Z,88.71
2022-11-23T06:10:52.748Z,88.07
2022-11-23T06:11:55.635Z,88.20
2022-11-23T06:13:05.616Z,89.60
2022-11-23T06:14:14.181Z,89.07
2022-11-23T06:15:16.225Z,88.99
2022-11-23T06:16:22.565Z,88.03
2022-11-23T06:17:27.811Z,88.52
2022-11-23T06:18:35.909Z,87.68
2022-11-23T06:19:41.164Z,87.75
2022-11-23T06:20:44.554Z,88.26
2022-11-23T06:21:50.694Z,88.31
2022-11-23T06:22:56.264Z,88.51
2022-11-23T06:24:00.719Z,88.50
2022-11-23T06:25:07.871Z,88.87
2022-11-23T06:26:16.400Z,88.05
2022-11-23T06:27:20.015Z,88.14
2022-11-23T06:28:25.947Z,87.95
2022-11-23T06:29:30.103Z,87.88
2022-11-23T06:30:33.855Z,88.03
2022-11-23T06:31:38.757Z,88.59
2022-11-23T06:32:44.117Z,88.93
2022-11-23T06:33:47.621Z,88.99
2022-11-23T06:34:53.852Z,89.35
2022-11-23T06:35:59.631Z,90.76
2022-11-23T06:37:05.654Z,91.25
2022-11-23T06:38:13.003Z,90.13
2022-11-23T06:39:17.144Z,89.36
2022-11-23T06:40:20.452Z,89.96
2022-11-23T06:41:27.012Z,89.47
2022-11-23T06:42:38.987Z,89.35
2022-11-23T06:43:34.851Z,89.22
2022-11-23T06:44:40.498Z,88.62
2022-11-23T06:45:44.022Z,88.77
2022-11-23T06:46:50.244Z,88.99
2022-11-23T06:47:55.511Z,89.88
2022-11-23T06:48:59.041Z,90.11
2022-11-23T06:50:02.858Z,90.21
2022-11-23T06:51:06.999Z,89.89
2022-11-23T06:52:12.861Z,90.09
2022-11-23T06:53:19.251Z,89.90
2022-11-23T06:54:27.555Z,89.86
2022-11-23T06:55:31.760Z,90.30
2022-11-23T06:56:38.089Z,90.50
2022-11-23T06:57:41.494Z,89.85
2022-11-23T06:58:45.615Z,89.37
2022-11-23T06:59:50.802Z,89.13
2022-11-23T07:00:59.041Z,89.03
2022-11-23T07:02:03.367Z,89.31
2022-11-23T07:03:11.370Z,89.69
2022-11-23T07:04:17.882Z,90.23
2022-11-23T07:05:24.233Z,89.91
2022-11-23T07:06:31.097Z,90.20
2022-11-23T07:07:36.789Z,89.75
2022-11-23T07:08:44.228Z,89.98
2022-11-23T07:10:06.625Z,90.62
2022-11-23T07:11:10.409Z,90.33
2022-11-23T07:12:13.736Z,89.24
2022-11-23T07:13:18.412Z,89.03
2022-11-23T07:14:23.478Z,90.05
2022-11-23T07:15:29.924Z,89.79
2022-11-23T07:16:33.293Z,89.87
2022-11-23T07:17:42.438Z,89.70
2022-11-23T07:18:46.377Z,89.51
2022-11-23T07:19:49.694Z,89.68
2022-11-23T07:20:52.993Z,89.59
2022-11-23T07:21:57.725Z,89.16
2022-11-23T07:23:07.813Z,89.58
2022-11-23T07:24:12.889Z,89.47
2022-11-23T07:25:19.401Z,89.63
2022-11-23T07:26:22.923Z,89.67
2022-11-23T07:27:26.739Z,89.04
2022-11-23T07:28:31.185Z,88.67
2022-11-23T07:29:35.840Z,88.45
2022-11-23T07:30:39.746Z,88.83
2022-11-23T07:31:42.117Z,88.71
2022-11-23T07:32:45.399Z,88.12
2022-11-23T07:33:51.410Z,88.76
2022-11-23T07:34:56.076Z,89.33
2022-11-23T07:36:01.464Z,89.43
2022-11-23T07:37:05.809Z,88.99
2022-11-23T07:38:10.040Z,89.24
2022-11-23T07:39:14.949Z,88.92
2022-11-23T07:40:19.991Z,89.12
2022-11-23T07:41:23.121Z,88.86
2022-11-23T07:42:45.224Z,88.84
2022-11-23T07:43:48.978Z,88.87
2022-11-23T07:44:52.799Z,88.08
2022-11-23T07:45:59.332Z,87.80
2022-11-23T07:47:03.605Z,88.31
2022-11-23T07:48:07.687Z,88.19
2022-11-23T07:49:10.159Z,89.27
2022-11-23T07:50:14.379Z,89.13
2022-11-23T07:51:20.594Z,88.89
2022-11-23T07:52:24.225Z,88.41
2022-11-23T07:53:27.730Z,87.50
2022-11-23T07:54:31.548Z,87.81
2022-11-23T07:55:35.249Z,87.87
2022-11-23T07:56:38.856Z,88.11
2022-11-23T07:57:41.408Z,87.52
2022-11-23T07:58:43.898Z,87.42
2022-11-23T07:59:47.505Z,87.58
2022-11-23T08:00:51.442Z,88.91
2022-11-23T08:01:58.340Z,89.38
2022-11-23T08:04:05.494Z,88.89
2022-11-23T08:05:14.258Z,89.52
2022-11-23T08:06:16.475Z,89.46
2022-11-23T08:07:23.871Z,89.36
2022-11-23T08:08:27.440Z,88.37
2022-11-23T08:09:30.807Z,89.45
2022-11-23T08:10:36.634Z,88.87
2022-11-23T08:11:40.425Z,89.31
2022-11-23T08:12:43.875Z,88.93
2022-11-23T08:13:46.949Z,88.59
2022-11-23T08:14:51.798Z,88.50
2022-11-23T08:15:55.791Z,89.20
2022-11-23T08:17:02.908Z,89.42
2022-11-23T08:18:06.624Z,89.58
2022-11-23T08:19:08.979Z,89.45
2022-11-23T08:20:12.470Z,90.22
2022-11-23T08:21:15.883Z,89.99
2022-11-23T08:22:18.348Z,90.31
2022-11-23T08:23:23.196Z,90.45
2022-11-23T08:24:27.256Z,88.91
2022-11-23T08:25:30.870Z,88.04
2022-11-23T08:26:34.603Z,88.37
2022-11-23T08:27:37.436Z,88.51
2022-11-23T08:28:40.656Z,88.30
2022-11-23T08:29:44.342Z,88.38
2022-11-23T08:30:51.070Z,88.30
2022-11-23T08:31:56.782Z,88.15
2022-11-23T08:33:01.018Z,88.13
2022-11-23T08:34:04.419Z,88.08
2022-11-23T08:35:07.178Z,87.81
2022-11-23T08:36:11.675Z,87.81
2022-11-23T08:37:15.247Z,87.51
2022-11-23T08:38:19.400Z,88.03
2022-11-23T08:39:21.736Z,87.79
2022-11-23T08:40:26.767Z,87.97
2022-11-23T08:41:30.729Z,88.29
2022-11-23T08:42:35.385Z,88.62
2022-11-23T08:43:38.787Z,88.38
2022-11-23T08:44:42.484Z,88.41
2022-11-23T08:45:46.734Z,88.56
2022-11-23T08:46:52.249Z,87.80
2022-11-23T08:48:01.219Z,87.59
2022-11-23T08:49:04.771Z,88.55
2022-11-23T08:50:08.639Z,89.90
2022-11-23T08:51:12.510Z,89.72
2022-11-23T08:52:15.389Z,89.35
2022-11-23T08:53:20.512Z,89.00
2022-11-23T08:54:24.907Z,88.10
2022-11-23T08:55:28.993Z,87.87
2022-11-23T08:56:33.292Z,87.37
2022-11-23T08:57:35.838Z,88.36
2022-11-23T08:58:39.118Z,88.28
2022-11-23T08:59:42.505Z,87.94
2022-11-23T09:00:46.039Z,87.46
2022-11-23T09:01:50.767Z,86.96
2022-11-23T09:02:54.197Z,86.87
2022-11-23T09:03:57.375Z,87.07
2022-11-23T09:05:01.423Z,87.32
2022-11-23T09:06:07.859Z,87.00
2022-11-23T09:07:11.625Z,87.32
2022-11-23T09:08:15.953Z,87.18
2022-11-23T09:09:19.512Z,87.65
2022-11-23T09:10:22.284Z,87.83
2022-11-23T09:11:25.894Z,87.57
2022-11-23T09:12:29.175Z,88.20
2022-11-23T09:13:36.350Z,88.91
2022-11-23T09:14:39.717Z,88.21
2022-11-23T09:15:42.003Z,87.63
2022-11-23T09:16:45.341Z,87.56
2022-11-23T09:17:49.443Z,87.64
2022-11-23T09:18:56.576Z,88.11
2022-11-23T09:20:00.328Z,88.40
2022-11-23T09:21:03.982Z,88.85
2022-11-23T09:22:07.404Z,89.21
2022-11-23T09:23:14.412Z,89.72
2022-11-23T09:24:17.632Z,89.49
2022-11-23T09:25:22.574Z,89.34
2022-11-23T09:26:26.438Z,88.88
2022-11-23T09:27:29.162Z,88.62
2022-11-23T09:28:33.362Z,88.94
2022-11-23T09:29:36.761Z,89.32
2022-11-23T09:30:39.100Z,89.44
2022-11-23T09:31:41.978Z,89.47
2022-11-23T09:32:45.379Z,88.93
2022-11-23T09:33:48.526Z,88.97
2022-11-23T09:34:51.448Z,89.29
2022-11-23T09:35:57.655Z,89.83
2022-11-23T09:37:01.070Z,90.19
2022-11-23T09:38:04.068Z,90.11
2022-11-23T09:39:07.374Z,89.30
2022-11-23T09:40:12.054Z,88.75
2022-11-23T09:41:25.638Z,88.58
2022-11-23T09:42:33.844Z,88.43
2022-11-23T09:43:43.111Z,88.54
2022-11-23T09:44:51.716Z,87.79
2022-11-23T09:45:57.641Z,87.62
2022-11-23T09:47:08.127Z,87.54
2022-11-23T09:48:16.359Z,88.30
2022-11-23T09:49:20.900Z,88.23
2022-11-23T09:50:26.492Z,88.26
2022-11-23T09:51:28.623Z,88.70
2022-11-23T09:52:32.351Z,89.23
2022-11-23T09:53:43.522Z,90.29
2022-11-23T09:54:48.332Z,90.64
2022-11-23T09:55:53.450Z,90.37
2022-11-23T09:57:01.552Z,90.38
2022-11-23T09:58:14.399Z,89.65
2022-11-23T09:59:20.838Z,89.35
2022-11-23T10:00:24.774Z,89.83
2022-11-23T10:01:27.432Z,89.52
2022-11-23T10:02:32.781Z,88.95
2022-11-23T10:03:45.337Z,89.03
2022-11-23T10:04:45.488Z,89.34
2022-11-23T10:05:50.849Z,88.71
2022-11-23T10:06:58.912Z,89.52
2022-11-23T10:08:05.902Z,89.61
2022-11-23T10:09:11.305Z,89.67
2022-11-23T10:10:20.577Z,89.96
2022-11-23T10:11:25.687Z,90.00
2022-11-23T10:12:29.920Z,89.54
2022-11-23T10:13:39.527Z,89.42
2022-11-23T10:14:52.112Z,89.72
2022-11-23T10:15:58.131Z,88.91
2022-11-23T10:17:03.411Z,88.58
2022-11-23T10:18:18.181Z,88.63
2022-11-23T10:19:24.403Z,88.18
